sensor_id;sensor_type;location;lat;lon;timestamp;P1;durP1;ratioP1;P2;durP2;ratioP2
7917;SDS011;4004;42.624;23.386;2024-01-30T00:01:57;8.65;;;6.07;;
7917;SDS011;4004;42.624;23.386;2024-01-30T00:04:26;8.20;;;6.28;;
7917;SDS011;4004;42.624;23.386;2024-01-30T00:06:53;8.52;;;6.80;;
7917;SDS011;4004;42.624;23.386;2024-01-30T00:09:20;9.13;;;6.30;;
7917;SDS011;4004;42.624;23.386;2024-01-30T00:11:46;10.15;;;7.05;;
7917;SDS011;4004;42.624;23.386;2024-01-30T00:14:13;8.80;;;6.50;;
7917;SDS011;4004;42.624;23.386;2024-01-30T00:16:40;10.10;;;6.28;;
7917;SDS011;4004;42.624;23.386;2024-01-30T00:19:07;7.80;;;6.32;;
7917;SDS011;4004;42.624;23.386;2024-01-30T00:21:36;8.30;;;6.15;;
7917;SDS011;4004;42.624;23.386;2024-01-30T00:24:03;7.28;;;5.78;;
7917;SDS011;4004;42.624;23.386;2024-01-30T00:26:30;11.05;;;6.28;;
7917;SDS011;4004;42.624;23.386;2024-01-30T00:28:57;8.15;;;6.60;;
7917;SDS011;4004;42.624;23.386;2024-01-30T00:31:24;8.88;;;6.40;;
7917;SDS011;4004;42.624;23.386;2024-01-30T00:33:52;10.43;;;6.80;;
7917;SDS011;4004;42.624;23.386;2024-01-30T00:36:19;9.68;;;6.30;;
7917;SDS011;4004;42.624;23.386;2024-01-30T00:38:47;9.10;;;6.57;;
7917;SDS011;4004;42.624;23.386;2024-01-30T00:41:15;6.97;;;6.03;;
7917;SDS011;4004;42.624;23.386;2024-01-30T00:43:45;8.68;;;5.53;;
7917;SDS011;4004;42.624;23.386;2024-01-30T00:46:12;8.18;;;5.97;;
7917;SDS011;4004;42.624;23.386;2024-01-30T00:48:39;7.93;;;6.05;;
7917;SDS011;4004;42.624;23.386;2024-01-30T00:51:06;7.63;;;5.97;;
7917;SDS011;4004;42.624;23.386;2024-01-30T00:53:33;6.97;;;5.97;;
7917;SDS011;4004;42.624;23.386;2024-01-30T00:56:01;11.73;;;6.55;;
7917;SDS011;4004;42.624;23.386;2024-01-30T00:58:28;6.70;;;5.97;;
7917;SDS011;4004;42.624;23.386;2024-01-30T01:00:56;8.00;;;5.65;;
7917;SDS011;4004;42.624;23.386;2024-01-30T01:03:23;7.22;;;5.40;;
7917;SDS011;4004;42.624;23.386;2024-01-30T01:05:49;6.55;;;5.25;;
7917;SDS011;4004;42.624;23.386;2024-01-30T01:08:17;7.78;;;5.60;;
7917;SDS011;4004;42.624;23.386;2024-01-30T01:10:44;6.47;;;5.45;;
7917;SDS011;4004;42.624;23.386;2024-01-30T01:13:11;6.77;;;5.77;;
7917;SDS011;4004;42.624;23.386;2024-01-30T01:15:38;7.75;;;5.55;;
7917;SDS011;4004;42.624;23.386;2024-01-30T01:18:05;7.63;;;5.20;;
7917;SDS011;4004;42.624;23.386;2024-01-30T01:20:32;7.80;;;5.57;;
7917;SDS011;4004;42.624;23.386;2024-01-30T01:22:59;8.35;;;5.82;;
7917;SDS011;4004;42.624;23.386;2024-01-30T01:25:26;6.80;;;5.70;;
7917;SDS011;4004;42.624;23.386;2024-01-30T01:27:53;8.52;;;5.78;;
7917;SDS011;4004;42.624;23.386;2024-01-30T01:30:21;8.02;;;5.43;;
7917;SDS011;4004;42.624;23.386;2024-01-30T01:32:48;6.93;;;5.38;;
7917;SDS011;4004;42.624;23.386;2024-01-30T01:35:20;7.43;;;5.57;;
7917;SDS011;4004;42.624;23.386;2024-01-30T01:37:48;7.43;;;5.50;;
7917;SDS011;4004;42.624;23.386;2024-01-30T01:40:20;8.13;;;5.55;;
7917;SDS011;4004;42.624;23.386;2024-01-30T01:42:49;6.70;;;5.47;;
7917;SDS011;4004;42.624;23.386;2024-01-30T01:45:17;7.15;;;5.60;;
7917;SDS011;4004;42.624;23.386;2024-01-30T01:47:46;8.45;;;5.07;;
7917;SDS011;4004;42.624;23.386;2024-01-30T01:50:15;7.70;;;4.85;;
7917;SDS011;4004;42.624;23.386;2024-01-30T01:52:44;6.25;;;4.93;;
7917;SDS011;4004;42.624;23.386;2024-01-30T01:55:13;7.28;;;5.15;;
7917;SDS011;4004;42.624;23.386;2024-01-30T01:57:42;5.35;;;4.78;;
7917;SDS011;4004;42.624;23.386;2024-01-30T02:00:10;7.72;;;5.30;;
7917;SDS011;4004;42.624;23.386;2024-01-30T02:02:39;6.78;;;5.40;;
7917;SDS011;4004;42.624;23.386;2024-01-30T02:05:07;7.38;;;5.43;;
7917;SDS011;4004;42.624;23.386;2024-01-30T02:07:34;7.03;;;4.68;;
7917;SDS011;4004;42.624;23.386;2024-01-30T02:10:01;6.60;;;5.72;;
7917;SDS011;4004;42.624;23.386;2024-01-30T02:12:30;7.25;;;4.95;;
7917;SDS011;4004;42.624;23.386;2024-01-30T02:14:57;6.43;;;5.25;;
7917;SDS011;4004;42.624;23.386;2024-01-30T02:17:24;7.93;;;5.63;;
7917;SDS011;4004;42.624;23.386;2024-01-30T02:19:51;6.03;;;4.63;;
7917;SDS011;4004;42.624;23.386;2024-01-30T02:22:20;5.35;;;4.32;;
7917;SDS011;4004;42.624;23.386;2024-01-30T02:24:47;5.28;;;4.35;;
7917;SDS011;4004;42.624;23.386;2024-01-30T02:27:15;9.32;;;4.85;;
7917;SDS011;4004;42.624;23.386;2024-01-30T02:29:42;4.88;;;4.35;;
7917;SDS011;4004;42.624;23.386;2024-01-30T02:32:09;5.63;;;4.43;;
7917;SDS011;4004;42.624;23.386;2024-01-30T02:34:36;6.50;;;4.88;;
7917;SDS011;4004;42.624;23.386;2024-01-30T02:37:03;5.72;;;4.32;;
7917;SDS011;4004;42.624;23.386;2024-01-30T02:39:31;6.68;;;4.35;;
7917;SDS011;4004;42.624;23.386;2024-01-30T02:41:58;5.20;;;4.68;;
7917;SDS011;4004;42.624;23.386;2024-01-30T02:44:25;6.40;;;5.25;;
7917;SDS011;4004;42.624;23.386;2024-01-30T02:46:53;9.63;;;4.32;;
7917;SDS011;4004;42.624;23.386;2024-01-30T02:49:20;5.65;;;4.50;;
7917;SDS011;4004;42.624;23.386;2024-01-30T02:51:47;6.00;;;4.43;;
7917;SDS011;4004;42.624;23.386;2024-01-30T02:54:14;5.15;;;4.25;;
7917;SDS011;4004;42.624;23.386;2024-01-30T02:56:43;4.90;;;4.40;;
7917;SDS011;4004;42.624;23.386;2024-01-30T02:59:10;8.55;;;4.15;;
7917;SDS011;4004;42.624;23.386;2024-01-30T03:01:42;5.82;;;4.85;;
7917;SDS011;4004;42.624;23.386;2024-01-30T03:04:10;5.95;;;4.75;;
7917;SDS011;4004;42.624;23.386;2024-01-30T03:06:37;6.03;;;5.15;;
7917;SDS011;4004;42.624;23.386;2024-01-30T03:09:04;7.00;;;4.68;;
7917;SDS011;4004;42.624;23.386;2024-01-30T03:11:31;8.07;;;4.65;;
7917;SDS011;4004;42.624;23.386;2024-01-30T03:13:59;5.68;;;5.00;;
7917;SDS011;4004;42.624;23.386;2024-01-30T03:16:26;5.65;;;4.43;;
7917;SDS011;4004;42.624;23.386;2024-01-30T03:18:53;6.72;;;4.95;;
7917;SDS011;4004;42.624;23.386;2024-01-30T03:21:20;6.63;;;4.95;;
7917;SDS011;4004;42.624;23.386;2024-01-30T03:23:48;6.70;;;5.25;;
7917;SDS011;4004;42.624;23.386;2024-01-30T03:26:15;7.35;;;5.43;;
7917;SDS011;4004;42.624;23.386;2024-01-30T03:28:41;7.35;;;4.80;;
7917;SDS011;4004;42.624;23.386;2024-01-30T03:31:12;10.73;;;5.22;;
7917;SDS011;4004;42.624;23.386;2024-01-30T03:33:40;7.72;;;5.10;;
7917;SDS011;4004;42.624;23.386;2024-01-30T03:36:08;7.72;;;4.70;;
7917;SDS011;4004;42.624;23.386;2024-01-30T03:38:35;6.20;;;4.13;;
7917;SDS011;4004;42.624;23.386;2024-01-30T03:41:02;6.05;;;4.45;;
7917;SDS011;4004;42.624;23.386;2024-01-30T03:43:29;9.18;;;4.68;;
7917;SDS011;4004;42.624;23.386;2024-01-30T03:45:56;6.47;;;4.30;;
7917;SDS011;4004;42.624;23.386;2024-01-30T03:48:25;5.18;;;3.92;;
7917;SDS011;4004;42.624;23.386;2024-01-30T03:50:52;5.78;;;4.93;;
7917;SDS011;4004;42.624;23.386;2024-01-30T03:53:19;5.93;;;4.35;;
7917;SDS011;4004;42.624;23.386;2024-01-30T03:55:46;5.80;;;4.95;;
7917;SDS011;4004;42.624;23.386;2024-01-30T03:58:13;6.88;;;4.80;;
7917;SDS011;4004;42.624;23.386;2024-01-30T04:00:40;6.90;;;4.45;;
7917;SDS011;4004;42.624;23.386;2024-01-30T04:03:07;8.25;;;4.63;;
7917;SDS011;4004;42.624;23.386;2024-01-30T04:05:36;7.80;;;4.78;;
7917;SDS011;4004;42.624;23.386;2024-01-30T04:08:03;5.88;;;4.68;;
7917;SDS011;4004;42.624;23.386;2024-01-30T04:10:30;7.80;;;3.70;;
7917;SDS011;4004;42.624;23.386;2024-01-30T04:12:57;6.45;;;4.07;;
7917;SDS011;4004;42.624;23.386;2024-01-30T04:15:24;4.82;;;4.05;;
7917;SDS011;4004;42.624;23.386;2024-01-30T04:17:52;4.22;;;3.75;;
7917;SDS011;4004;42.624;23.386;2024-01-30T04:20:19;5.88;;;3.55;;
7917;SDS011;4004;42.624;23.386;2024-01-30T04:22:47;4.90;;;3.83;;
7917;SDS011;4004;42.624;23.386;2024-01-30T04:25:14;6.05;;;3.78;;
7917;SDS011;4004;42.624;23.386;2024-01-30T04:27:42;5.30;;;3.80;;
7917;SDS011;4004;42.624;23.386;2024-01-30T04:30:09;4.60;;;4.10;;
7917;SDS011;4004;42.624;23.386;2024-01-30T04:32:36;4.90;;;3.92;;
7917;SDS011;4004;42.624;23.386;2024-01-30T04:35:04;8.98;;;4.35;;
7917;SDS011;4004;42.624;23.386;2024-01-30T04:37:31;2.83;;;2.40;;
7917;SDS011;4004;42.624;23.386;2024-01-30T04:39:59;4.05;;;3.30;;
7917;SDS011;4004;42.624;23.386;2024-01-30T04:42:27;3.65;;;2.97;;
7917;SDS011;4004;42.624;23.386;2024-01-30T04:44:54;4.25;;;3.22;;
7917;SDS011;4004;42.624;23.386;2024-01-30T04:47:21;3.70;;;3.15;;
7917;SDS011;4004;42.624;23.386;2024-01-30T04:49:48;4.43;;;3.53;;
7917;SDS011;4004;42.624;23.386;2024-01-30T04:52:15;4.53;;;3.08;;
7917;SDS011;4004;42.624;23.386;2024-01-30T04:54:42;6.45;;;3.00;;
7917;SDS011;4004;42.624;23.386;2024-01-30T04:57:11;4.78;;;3.33;;
7917;SDS011;4004;42.624;23.386;2024-01-30T04:59:38;11.20;;;4.43;;
7917;SDS011;4004;42.624;23.386;2024-01-30T05:02:05;5.85;;;4.50;;
7917;SDS011;4004;42.624;23.386;2024-01-30T05:04:32;4.70;;;4.15;;
7917;SDS011;4004;42.624;23.386;2024-01-30T05:06:59;6.82;;;4.32;;
7917;SDS011;4004;42.624;23.386;2024-01-30T05:09:26;8.27;;;4.45;;
7917;SDS011;4004;42.624;23.386;2024-01-30T05:11:53;6.97;;;4.55;;
7917;SDS011;4004;42.624;23.386;2024-01-30T05:14:21;5.55;;;4.65;;
7917;SDS011;4004;42.624;23.386;2024-01-30T05:16:48;9.57;;;5.32;;
7917;SDS011;4004;42.624;23.386;2024-01-30T05:19:16;9.45;;;4.43;;
7917;SDS011;4004;42.624;23.386;2024-01-30T05:21:44;6.60;;;4.30;;
7917;SDS011;4004;42.624;23.386;2024-01-30T05:24:11;6.68;;;4.82;;
7917;SDS011;4004;42.624;23.386;2024-01-30T05:26:38;6.93;;;4.32;;
7917;SDS011;4004;42.624;23.386;2024-01-30T05:29:05;5.40;;;4.20;;
7917;SDS011;4004;42.624;23.386;2024-01-30T05:31:34;6.03;;;3.92;;
7917;SDS011;4004;42.624;23.386;2024-01-30T05:34:01;7.55;;;4.85;;
7917;SDS011;4004;42.624;23.386;2024-01-30T05:36:28;5.78;;;4.35;;
7917;SDS011;4004;42.624;23.386;2024-01-30T05:38:55;10.73;;;5.32;;
7917;SDS011;4004;42.624;23.386;2024-01-30T05:41:22;19.10;;;5.43;;
7917;SDS011;4004;42.624;23.386;2024-01-30T05:43:49;5.90;;;4.72;;
7917;SDS011;4004;42.624;23.386;2024-01-30T05:46:16;5.15;;;4.32;;
7917;SDS011;4004;42.624;23.386;2024-01-30T05:48:44;5.35;;;4.53;;
7917;SDS011;4004;42.624;23.386;2024-01-30T05:51:11;6.03;;;4.40;;
7917;SDS011;4004;42.624;23.386;2024-01-30T05:53:38;4.82;;;3.85;;
7917;SDS011;4004;42.624;23.386;2024-01-30T05:56:06;6.03;;;4.18;;
7917;SDS011;4004;42.624;23.386;2024-01-30T05:58:33;9.32;;;4.30;;
7917;SDS011;4004;42.624;23.386;2024-01-30T06:01:02;7.28;;;4.82;;
7917;SDS011;4004;42.624;23.386;2024-01-30T06:03:33;9.70;;;5.35;;
7917;SDS011;4004;42.624;23.386;2024-01-30T06:06:01;14.68;;;5.22;;
7917;SDS011;4004;42.624;23.386;2024-01-30T06:08:28;8.85;;;4.35;;
7917;SDS011;4004;42.624;23.386;2024-01-30T06:10:55;11.32;;;5.20;;
7917;SDS011;4004;42.624;23.386;2024-01-30T06:13:22;5.32;;;3.80;;
7917;SDS011;4004;42.624;23.386;2024-01-30T06:15:49;11.05;;;4.45;;
7917;SDS011;4004;42.624;23.386;2024-01-30T06:18:15;12.85;;;4.60;;
7917;SDS011;4004;42.624;23.386;2024-01-30T06:20:42;10.32;;;4.88;;
7917;SDS011;4004;42.624;23.386;2024-01-30T06:23:11;6.22;;;4.18;;
7917;SDS011;4004;42.624;23.386;2024-01-30T06:25:39;6.10;;;4.05;;
7917;SDS011;4004;42.624;23.386;2024-01-30T06:28:06;7.70;;;3.75;;
7917;SDS011;4004;42.624;23.386;2024-01-30T06:30:33;7.97;;;3.83;;
7917;SDS011;4004;42.624;23.386;2024-01-30T06:33:00;6.75;;;4.43;;
7917;SDS011;4004;42.624;23.386;2024-01-30T06:35:27;7.40;;;3.85;;
7917;SDS011;4004;42.624;23.386;2024-01-30T06:37:55;16.23;;;4.43;;
7917;SDS011;4004;42.624;23.386;2024-01-30T06:40:23;18.55;;;4.13;;
7917;SDS011;4004;42.624;23.386;2024-01-30T06:42:50;11.18;;;3.50;;
7917;SDS011;4004;42.624;23.386;2024-01-30T06:45:17;10.60;;;3.58;;
7917;SDS011;4004;42.624;23.386;2024-01-30T06:47:44;10.30;;;3.63;;
7917;SDS011;4004;42.624;23.386;2024-01-30T06:50:11;10.30;;;3.88;;
7917;SDS011;4004;42.624;23.386;2024-01-30T06:52:38;19.92;;;5.25;;
7917;SDS011;4004;42.624;23.386;2024-01-30T06:55:05;10.10;;;3.58;;
7917;SDS011;4004;42.624;23.386;2024-01-30T06:57:34;16.30;;;3.88;;
7917;SDS011;4004;42.624;23.386;2024-01-30T07:00:01;19.23;;;3.90;;
7917;SDS011;4004;42.624;23.386;2024-01-30T07:02:28;10.95;;;3.30;;
7917;SDS011;4004;42.624;23.386;2024-01-30T07:04:55;11.20;;;3.53;;
7917;SDS011;4004;42.624;23.386;2024-01-30T07:07:22;10.38;;;3.67;;
7917;SDS011;4004;42.624;23.386;2024-01-30T07:09:49;5.93;;;2.80;;
7917;SDS011;4004;42.624;23.386;2024-01-30T07:12:21;2.80;;;2.22;;
7917;SDS011;4004;42.624;23.386;2024-01-30T07:14:49;5.67;;;2.80;;
7917;SDS011;4004;42.624;23.386;2024-01-30T07:17:16;4.20;;;3.17;;
7917;SDS011;4004;42.624;23.386;2024-01-30T07:19:43;22.37;;;3.40;;
7917;SDS011;4004;42.624;23.386;2024-01-30T07:22:10;7.43;;;3.07;;
7917;SDS011;4004;42.624;23.386;2024-01-30T07:24:41;3.77;;;2.50;;
7917;SDS011;4004;42.624;23.386;2024-01-30T07:27:13;5.10;;;2.60;;
7917;SDS011;4004;42.624;23.386;2024-01-30T07:29:41;9.23;;;2.60;;
7917;SDS011;4004;42.624;23.386;2024-01-30T07:32:09;8.20;;;3.17;;
7917;SDS011;4004;42.624;23.386;2024-01-30T07:34:36;1.97;;;1.80;;
7917;SDS011;4004;42.624;23.386;2024-01-30T07:37:03;3.00;;;2.30;;
7917;SDS011;4004;42.624;23.386;2024-01-30T07:39:30;2.93;;;2.33;;
7917;SDS011;4004;42.624;23.386;2024-01-30T07:41:57;3.53;;;2.20;;
7917;SDS011;4004;42.624;23.386;2024-01-30T07:44:24;4.63;;;2.80;;
7917;SDS011;4004;42.624;23.386;2024-01-30T07:46:51;5.03;;;3.37;;
7917;SDS011;4004;42.624;23.386;2024-01-30T07:49:19;3.03;;;2.40;;
7917;SDS011;4004;42.624;23.386;2024-01-30T07:51:46;5.03;;;2.90;;
7917;SDS011;4004;42.624;23.386;2024-01-30T07:54:13;3.10;;;2.80;;
7917;SDS011;4004;42.624;23.386;2024-01-30T07:56:40;5.83;;;2.80;;
7917;SDS011;4004;42.624;23.386;2024-01-30T07:59:09;7.33;;;2.97;;
7917;SDS011;4004;42.624;23.386;2024-01-30T08:01:36;11.90;;;3.67;;
7917;SDS011;4004;42.624;23.386;2024-01-30T08:04:03;5.67;;;3.87;;
7917;SDS011;4004;42.624;23.386;2024-01-30T08:06:32;3.70;;;2.90;;
7917;SDS011;4004;42.624;23.386;2024-01-30T08:08:59;5.20;;;2.60;;
7917;SDS011;4004;42.624;23.386;2024-01-30T08:11:26;6.30;;;3.40;;
7917;SDS011;4004;42.624;23.386;2024-01-30T08:13:54;7.33;;;3.50;;
7917;SDS011;4004;42.624;23.386;2024-01-30T08:16:22;5.70;;;3.20;;
7917;SDS011;4004;42.624;23.386;2024-01-30T08:18:49;6.50;;;3.50;;
7917;SDS011;4004;42.624;23.386;2024-01-30T08:21:16;10.80;;;3.70;;
7917;SDS011;4004;42.624;23.386;2024-01-30T08:23:45;4.07;;;3.30;;
7917;SDS011;4004;42.624;23.386;2024-01-30T08:26:12;14.83;;;4.20;;
7917;SDS011;4004;42.624;23.386;2024-01-30T08:28:39;7.13;;;3.73;;
7917;SDS011;4004;42.624;23.386;2024-01-30T08:31:06;10.27;;;4.17;;
7917;SDS011;4004;42.624;23.386;2024-01-30T08:33:33;17.20;;;4.63;;
7917;SDS011;4004;42.624;23.386;2024-01-30T08:36:00;13.67;;;3.43;;
7917;SDS011;4004;42.624;23.386;2024-01-30T08:38:27;6.53;;;3.40;;
7917;SDS011;4004;42.624;23.386;2024-01-30T08:40:56;7.33;;;3.53;;
7917;SDS011;4004;42.624;23.386;2024-01-30T08:43:23;3.73;;;3.30;;
7917;SDS011;4004;42.624;23.386;2024-01-30T08:45:50;3.17;;;2.87;;
7917;SDS011;4004;42.624;23.386;2024-01-30T08:48:17;4.40;;;2.97;;
7917;SDS011;4004;42.624;23.386;2024-01-30T08:50:44;4.07;;;3.23;;
7917;SDS011;4004;42.624;23.386;2024-01-30T08:53:11;4.80;;;3.57;;
7917;SDS011;4004;42.624;23.386;2024-01-30T08:55:38;4.23;;;3.27;;
7917;SDS011;4004;42.624;23.386;2024-01-30T08:58:07;7.63;;;3.17;;
7917;SDS011;4004;42.624;23.386;2024-01-30T09:00:34;4.50;;;3.17;;
7917;SDS011;4004;42.624;23.386;2024-01-30T09:03:01;4.27;;;3.30;;
7917;SDS011;4004;42.624;23.386;2024-01-30T09:05:28;4.63;;;3.17;;
7917;SDS011;4004;42.624;23.386;2024-01-30T09:07:55;3.67;;;3.20;;
7917;SDS011;4004;42.624;23.386;2024-01-30T09:10:22;6.90;;;3.73;;
7917;SDS011;4004;42.624;23.386;2024-01-30T09:12:49;4.57;;;3.03;;
7917;SDS011;4004;42.624;23.386;2024-01-30T09:15:18;4.00;;;2.87;;
7917;SDS011;4004;42.624;23.386;2024-01-30T09:17:45;3.73;;;3.23;;
7917;SDS011;4004;42.624;23.386;2024-01-30T09:20:12;6.73;;;3.43;;
7917;SDS011;4004;42.624;23.386;2024-01-30T09:22:39;10.00;;;4.47;;
7917;SDS011;4004;42.624;23.386;2024-01-30T09:25:06;11.80;;;3.73;;
7917;SDS011;4004;42.624;23.386;2024-01-30T09:27:34;5.37;;;3.40;;
7917;SDS011;4004;42.624;23.386;2024-01-30T09:30:01;4.33;;;3.30;;
7917;SDS011;4004;42.624;23.386;2024-01-30T09:32:29;6.23;;;3.47;;
7917;SDS011;4004;42.624;23.386;2024-01-30T09:34:56;3.73;;;3.43;;
7917;SDS011;4004;42.624;23.386;2024-01-30T09:37:23;5.00;;;3.97;;
7917;SDS011;4004;42.624;23.386;2024-01-30T09:39:50;10.00;;;3.83;;
7917;SDS011;4004;42.624;23.386;2024-01-30T09:42:18;4.50;;;3.20;;
7917;SDS011;4004;42.624;23.386;2024-01-30T09:44:52;4.30;;;3.30;;
7917;SDS011;4004;42.624;23.386;2024-01-30T09:47:20;8.43;;;4.00;;
7917;SDS011;4004;42.624;23.386;2024-01-30T09:49:49;4.03;;;3.30;;
7917;SDS011;4004;42.624;23.386;2024-01-30T09:52:16;5.40;;;3.60;;
7917;SDS011;4004;42.624;23.386;2024-01-30T09:54:44;4.03;;;3.10;;
7917;SDS011;4004;42.624;23.386;2024-01-30T09:57:11;5.03;;;3.97;;
7917;SDS011;4004;42.624;23.386;2024-01-30T09:59:38;5.67;;;3.67;;
7917;SDS011;4004;42.624;23.386;2024-01-30T10:02:05;5.53;;;3.63;;
7917;SDS011;4004;42.624;23.386;2024-01-30T10:04:33;4.37;;;3.70;;
7917;SDS011;4004;42.624;23.386;2024-01-30T10:07:02;4.00;;;3.30;;
7917;SDS011;4004;42.624;23.386;2024-01-30T10:09:31;5.03;;;3.63;;
7917;SDS011;4004;42.624;23.386;2024-01-30T10:12:00;4.97;;;3.93;;
7917;SDS011;4004;42.624;23.386;2024-01-30T10:14:28;4.63;;;3.70;;
7917;SDS011;4004;42.624;23.386;2024-01-30T10:16:57;7.83;;;3.47;;
7917;SDS011;4004;42.624;23.386;2024-01-30T10:19:24;7.43;;;4.33;;
7917;SDS011;4004;42.624;23.386;2024-01-30T10:21:51;9.17;;;5.13;;
7917;SDS011;4004;42.624;23.386;2024-01-30T10:24:23;7.20;;;4.27;;
7917;SDS011;4004;42.624;23.386;2024-01-30T10:26:50;5.33;;;3.70;;
7917;SDS011;4004;42.624;23.386;2024-01-30T10:29:18;4.63;;;3.70;;
7917;SDS011;4004;42.624;23.386;2024-01-30T10:31:45;6.50;;;4.17;;
7917;SDS011;4004;42.624;23.386;2024-01-30T10:34:12;7.03;;;4.10;;
7917;SDS011;4004;42.624;23.386;2024-01-30T10:36:40;6.03;;;4.27;;
7917;SDS011;4004;42.624;23.386;2024-01-30T10:39:08;11.00;;;5.03;;
7917;SDS011;4004;42.624;23.386;2024-01-30T10:41:43;6.13;;;3.50;;
7917;SDS011;4004;42.624;23.386;2024-01-30T10:44:10;9.67;;;4.77;;
7917;SDS011;4004;42.624;23.386;2024-01-30T10:46:38;5.87;;;4.57;;
7917;SDS011;4004;42.624;23.386;2024-01-30T10:49:08;8.57;;;4.10;;
7917;SDS011;4004;42.624;23.386;2024-01-30T10:51:36;4.13;;;3.50;;
7917;SDS011;4004;42.624;23.386;2024-01-30T10:54:04;4.40;;;3.67;;
7917;SDS011;4004;42.624;23.386;2024-01-30T10:56:32;6.83;;;4.03;;
7917;SDS011;4004;42.624;23.386;2024-01-30T10:59:02;4.03;;;3.63;;
7917;SDS011;4004;42.624;23.386;2024-01-30T11:01:30;5.30;;;4.00;;
7917;SDS011;4004;42.624;23.386;2024-01-30T11:03:57;6.23;;;3.90;;
7917;SDS011;4004;42.624;23.386;2024-01-30T11:06:24;11.03;;;3.80;;
7917;SDS011;4004;42.624;23.386;2024-01-30T11:09:01;3.50;;;3.20;;
7917;SDS011;4004;42.624;23.386;2024-01-30T11:11:32;11.83;;;3.83;;
7917;SDS011;4004;42.624;23.386;2024-01-30T11:14:16;7.33;;;3.70;;
7917;SDS011;4004;42.624;23.386;2024-01-30T11:16:49;4.47;;;3.53;;
7917;SDS011;4004;42.624;23.386;2024-01-30T11:19:18;5.27;;;3.97;;
7917;SDS011;4004;42.624;23.386;2024-01-30T11:21:50;4.07;;;3.13;;
7917;SDS011;4004;42.624;23.386;2024-01-30T11:24:19;4.13;;;3.57;;
7917;SDS011;4004;42.624;23.386;2024-01-30T11:26:48;4.63;;;3.63;;
7917;SDS011;4004;42.624;23.386;2024-01-30T11:29:18;5.73;;;3.43;;
7917;SDS011;4004;42.624;23.386;2024-01-30T11:31:51;5.47;;;3.23;;
7917;SDS011;4004;42.624;23.386;2024-01-30T11:34:19;3.83;;;3.43;;
7917;SDS011;4004;42.624;23.386;2024-01-30T11:36:50;5.83;;;3.37;;
7917;SDS011;4004;42.624;23.386;2024-01-30T11:39:20;5.07;;;3.57;;
7917;SDS011;4004;42.624;23.386;2024-01-30T11:41:49;4.00;;;3.20;;
7917;SDS011;4004;42.624;23.386;2024-01-30T11:44:20;8.27;;;3.77;;
7917;SDS011;4004;42.624;23.386;2024-01-30T11:46:47;9.30;;;4.23;;
7917;SDS011;4004;42.624;23.386;2024-01-30T11:49:15;4.43;;;3.20;;
7917;SDS011;4004;42.624;23.386;2024-01-30T11:51:42;7.83;;;3.63;;
7917;SDS011;4004;42.624;23.386;2024-01-30T11:54:10;7.00;;;4.03;;
7917;SDS011;4004;42.624;23.386;2024-01-30T11:56:37;4.00;;;3.17;;
7917;SDS011;4004;42.624;23.386;2024-01-30T11:59:04;10.27;;;3.57;;
7917;SDS011;4004;42.624;23.386;2024-01-30T12:01:33;5.97;;;3.70;;
7917;SDS011;4004;42.624;23.386;2024-01-30T12:04:00;7.30;;;3.67;;
7917;SDS011;4004;42.624;23.386;2024-01-30T12:06:28;4.90;;;3.67;;
7917;SDS011;4004;42.624;23.386;2024-01-30T12:08:58;6.77;;;3.43;;
7917;SDS011;4004;42.624;23.386;2024-01-30T12:11:26;6.50;;;3.60;;
7917;SDS011;4004;42.624;23.386;2024-01-30T12:13:55;8.57;;;3.60;;
7917;SDS011;4004;42.624;23.386;2024-01-30T12:16:22;8.33;;;3.93;;
7917;SDS011;4004;42.624;23.386;2024-01-30T12:18:58;6.07;;;3.60;;
7917;SDS011;4004;42.624;23.386;2024-01-30T12:21:26;4.13;;;2.93;;
7917;SDS011;4004;42.624;23.386;2024-01-30T12:23:53;5.23;;;3.57;;
7917;SDS011;4004;42.624;23.386;2024-01-30T12:26:20;4.43;;;3.27;;
7917;SDS011;4004;42.624;23.386;2024-01-30T12:28:48;9.33;;;4.27;;
7917;SDS011;4004;42.624;23.386;2024-01-30T12:31:15;16.63;;;4.67;;
7917;SDS011;4004;42.624;23.386;2024-01-30T12:33:42;5.73;;;3.53;;
7917;SDS011;4004;42.624;23.386;2024-01-30T12:36:11;8.03;;;3.93;;
7917;SDS011;4004;42.624;23.386;2024-01-30T12:38:38;5.73;;;4.17;;
7917;SDS011;4004;42.624;23.386;2024-01-30T12:41:06;4.80;;;3.97;;
7917;SDS011;4004;42.624;23.386;2024-01-30T12:43:35;7.07;;;4.03;;
7917;SDS011;4004;42.624;23.386;2024-01-30T12:46:02;5.27;;;3.87;;
7917;SDS011;4004;42.624;23.386;2024-01-30T12:48:30;12.17;;;3.63;;
7917;SDS011;4004;42.624;23.386;2024-01-30T12:50:57;4.63;;;3.90;;
7917;SDS011;4004;42.624;23.386;2024-01-30T12:53:26;5.30;;;4.10;;
7917;SDS011;4004;42.624;23.386;2024-01-30T12:55:53;8.73;;;4.20;;
7917;SDS011;4004;42.624;23.386;2024-01-30T12:58:20;6.53;;;4.03;;
7917;SDS011;4004;42.624;23.386;2024-01-30T13:00:47;4.27;;;3.60;;
7917;SDS011;4004;42.624;23.386;2024-01-30T13:03:14;5.10;;;3.63;;
7917;SDS011;4004;42.624;23.386;2024-01-30T13:05:42;4.53;;;3.73;;
7917;SDS011;4004;42.624;23.386;2024-01-30T13:08:09;4.33;;;3.33;;
7917;SDS011;4004;42.624;23.386;2024-01-30T13:10:37;4.53;;;3.60;;
7917;SDS011;4004;42.624;23.386;2024-01-30T13:13:04;9.87;;;4.17;;
7917;SDS011;4004;42.624;23.386;2024-01-30T13:15:31;8.07;;;4.20;;
7917;SDS011;4004;42.624;23.386;2024-01-30T13:17:58;24.67;;;4.63;;
7917;SDS011;4004;42.624;23.386;2024-01-30T13:20:25;4.50;;;4.00;;
7917;SDS011;4004;42.624;23.386;2024-01-30T13:22:52;4.87;;;4.13;;
7917;SDS011;4004;42.624;23.386;2024-01-30T13:25:18;6.03;;;4.33;;
7917;SDS011;4004;42.624;23.386;2024-01-30T13:27:47;7.63;;;3.57;;
7917;SDS011;4004;42.624;23.386;2024-01-30T13:30:14;6.47;;;3.80;;
7917;SDS011;4004;42.624;23.386;2024-01-30T13:32:41;9.23;;;3.80;;
7917;SDS011;4004;42.624;23.386;2024-01-30T13:35:09;6.07;;;4.20;;
7917;SDS011;4004;42.624;23.386;2024-01-30T13:37:36;4.57;;;3.60;;
7917;SDS011;4004;42.624;23.386;2024-01-30T13:40:03;5.93;;;3.73;;
7917;SDS011;4004;42.624;23.386;2024-01-30T13:42:32;4.83;;;4.07;;
7917;SDS011;4004;42.624;23.386;2024-01-30T13:45:00;5.03;;;3.90;;
7917;SDS011;4004;42.624;23.386;2024-01-30T13:47:27;4.50;;;3.70;;
7917;SDS011;4004;42.624;23.386;2024-01-30T13:49:54;5.20;;;4.03;;
7917;SDS011;4004;42.624;23.386;2024-01-30T13:52:21;9.17;;;4.17;;
7917;SDS011;4004;42.624;23.386;2024-01-30T13:54:48;6.03;;;3.63;;
7917;SDS011;4004;42.624;23.386;2024-01-30T13:57:15;4.80;;;3.67;;
7917;SDS011;4004;42.624;23.386;2024-01-30T13:59:42;5.53;;;3.80;;
7917;SDS011;4004;42.624;23.386;2024-01-30T14:02:10;5.57;;;4.27;;
7917;SDS011;4004;42.624;23.386;2024-01-30T14:04:37;7.67;;;3.87;;
7917;SDS011;4004;42.624;23.386;2024-01-30T14:07:04;6.53;;;4.20;;
7917;SDS011;4004;42.624;23.386;2024-01-30T14:09:32;5.72;;;4.03;;
7917;SDS011;4004;42.624;23.386;2024-01-30T14:11:59;5.57;;;4.35;;
7917;SDS011;4004;42.624;23.386;2024-01-30T14:14:26;5.70;;;4.60;;
7917;SDS011;4004;42.624;23.386;2024-01-30T14:16:53;6.25;;;4.30;;
7917;SDS011;4004;42.624;23.386;2024-01-30T14:19:21;5.37;;;3.80;;
7917;SDS011;4004;42.624;23.386;2024-01-30T14:21:48;4.73;;;3.97;;
7917;SDS011;4004;42.624;23.386;2024-01-30T14:24:15;4.45;;;3.90;;
7917;SDS011;4004;42.624;23.386;2024-01-30T14:26:42;5.38;;;4.35;;
7917;SDS011;4004;42.624;23.386;2024-01-30T14:29:09;4.87;;;3.97;;
7917;SDS011;4004;42.624;23.386;2024-01-30T14:31:36;5.15;;;4.10;;
7917;SDS011;4004;42.624;23.386;2024-01-30T14:34:03;5.93;;;4.40;;
7917;SDS011;4004;42.624;23.386;2024-01-30T14:36:31;5.03;;;3.93;;
7917;SDS011;4004;42.624;23.386;2024-01-30T14:38:58;7.10;;;4.28;;
7917;SDS011;4004;42.624;23.386;2024-01-30T14:41:25;6.47;;;4.30;;
7917;SDS011;4004;42.624;23.386;2024-01-30T14:43:52;5.00;;;4.03;;
7917;SDS011;4004;42.624;23.386;2024-01-30T14:46:19;6.90;;;4.03;;
7917;SDS011;4004;42.624;23.386;2024-01-30T14:48:47;8.35;;;4.18;;
7917;SDS011;4004;42.624;23.386;2024-01-30T14:51:16;5.03;;;4.22;;
7917;SDS011;4004;42.624;23.386;2024-01-30T14:53:44;5.93;;;4.10;;
7917;SDS011;4004;42.624;23.386;2024-01-30T14:56:11;7.97;;;4.03;;
7917;SDS011;4004;42.624;23.386;2024-01-30T14:58:38;6.13;;;3.63;;
7917;SDS011;4004;42.624;23.386;2024-01-30T15:01:05;8.48;;;4.38;;
7917;SDS011;4004;42.624;23.386;2024-01-30T15:03:33;9.30;;;4.13;;